sensor_id;sensor_type;location;lat;lon;timestamp;pressure;altitude;pressure_sealevel;temperature;humidity
52291;BME280;39663;45.432;28.050;2022-11-20T00:00:08;101205.47;;;12.64;39.68
52291;BME280;39663;45.432;28.050;2022-11-20T00:00:41;101206.28;;;12.36;39.98
52291;BME280;39663;45.432;28.050;2022-11-20T00:01:14;101206.00;;;12.35;39.55
52291;BME280;39663;45.432;28.050;2022-11-20T00:01:46;101204.37;;;12.52;40.51
52291;BME280;39663;45.432;28.050;2022-11-20T00:02:17;101198.65;;;12.70;39.98
52291;BME280;39663;45.432;28.050;2022-11-20T00:02:49;101193.56;;;12.40;40.12
52291;BME280;39663;45.432;28.050;2022-11-20T00:03:21;101194.36;;;12.46;39.83
52291;BME280;39663;45.432;28.050;2022-11-20T00:03:54;101185.86;;;12.59;39.84
52291;BME280;39663;45.432;28.050;2022-11-20T00:04:25;101185.71;;;13.06;39.35
52291;BME280;39663;45.432;28.050;2022-11-20T00:04:57;101187.10;;;12.94;40.37
52291;BME280;39663;45.432;28.050;2022-11-20T00:05:28;101183.63;;;12.52;39.80
52291;BME280;39663;45.432;28.050;2022-11-20T00:06:00;101181.30;;;12.90;40.18
52291;BME280;39663;45.432;28.050;2022-11-20T00:06:32;101178.87;;;12.73;39.51
52291;BME280;39663;45.432;28.050;2022-11-20T00:07:04;101178.83;;;12.88;39.87
52291;BME280;39663;45.432;28.050;2022-11-20T00:07:35;101184.36;;;13.17;38.84
52291;BME280;39663;45.432;28.050;2022-11-20T00:08:07;101181.59;;;13.15;38.60
52291;BME280;39663;45.432;28.050;2022-11-20T00:08:39;101176.55;;;12.82;38.87
52291;BME280;39663;45.432;28.050;2022-11-20T00:09:11;101175.29;;;12.50;39.27
52291;BME280;39663;45.432;28.050;2022-11-20T00:09:42;101179.04;;;12.21;40.85
52291;BME280;39663;45.432;28.050;2022-11-20T00:10:14;101173.48;;;12.50;39.85
52291;BME280;39663;45.432;28.050;2022-11-20T00:10:45;101178.33;;;12.28;39.58
52291;BME280;39663;45.432;28.050;2022-11-20T00:11:19;101177.26;;;12.09;40.24
52291;BME280;39663;45.432;28.050;2022-11-20T00:11:50;101176.62;;;12.83;39.93
52291;BME280;39663;45.432;28.050;2022-11-20T00:12:22;101178.21;;;12.62;39.21
52291;BME280;39663;45.432;28.050;2022-11-20T00:12:54;101171.46;;;12.62;39.64
52291;BME280;39663;45.432;28.050;2022-11-20T00:13:25;101172.48;;;12.28;39.70
52291;BME280;39663;45.432;28.050;2022-11-20T00:13:59;101172.33;;;12.08;40.83
52291;BME280;39663;45.432;28.050;2022-11-20T00:14:30;101170.56;;;12.63;40.48
52291;BME280;39663;45.432;28.050;2022-11-20T00:15:03;101170.07;;;12.42;40.15
52291;BME280;39663;45.432;28.050;2022-11-20T00:15:34;101166.25;;;11.92;40.44
52291;BME280;39663;45.432;28.050;2022-11-20T00:16:08;101167.65;;;12.47;40.12
52291;BME280;39663;45.432;28.050;2022-11-20T00:16:40;101163.11;;;12.79;40.78
52291;BME280;39663;45.432;28.050;2022-11-20T00:17:11;101159.28;;;12.75;39.30
52291;BME280;39663;45.432;28.050;2022-11-20T00:17:43;101158.32;;;12.83;39.24
52291;BME280;39663;45.432;28.050;2022-11-20T00:18:14;101154.47;;;12.50;40.38
52291;BME280;39663;45.432;28.050;2022-11-20T00:18:47;101156.26;;;12.73;40.20
52291;BME280;39663;45.432;28.050;2022-11-20T00:19:18;101161.39;;;12.81;39.31
52291;BME280;39663;45.432;28.050;2022-11-20T00:19:50;101155.84;;;12.30;41.20
52291;BME280;39663;45.432;28.050;2022-11-20T00:20:21;101162.56;;;12.48;41.18
52291;BME280;39663;45.432;28.050;2022-11-20T00:20:53;101158.68;;;12.24;40.50
52291;BME280;39663;45.432;28.050;2022-11-20T00:21:31;101160.18;;;12.97;40.06
52291;BME280;39663;45.432;28.050;2022-11-20T00:22:02;101159.90;;;12.86;39.75
52291;BME280;39663;45.432;28.050;2022-11-20T00:22:34;101162.50;;;12.92;39.03
52291;BME280;39663;45.432;28.050;2022-11-20T00:23:06;101160.41;;;12.66;39.43
52291;BME280;39663;45.432;28.050;2022-11-20T00:23:38;101152.30;;;12.42;40.54
52291;BME280;39663;45.432;28.050;2022-11-20T00:24:09;101159.98;;;12.50;40.08
52291;BME280;39663;45.432;28.050;2022-11-20T00:24:41;101156.00;;;12.79;40.20
52291;BME280;39663;45.432;28.050;2022-11-20T00:25:13;101158.68;;;12.73;39.56
52291;BME280;39663;45.432;28.050;2022-11-20T00:25:44;101156.94;;;12.64;39.95
52291;BME280;39663;45.432;28.050;2022-11-20T00:26:18;101156.88;;;12.49;39.63
52291;BME280;39663;45.432;28.050;2022-11-20T00:26:49;101161.11;;;12.24;40.78
52291;BME280;39663;45.432;28.050;2022-11-20T00:27:21;101160.47;;;12.40;40.07
52291;BME280;39663;45.432;28.050;2022-11-20T00:27:53;101151.47;;;12.73;41.96
52291;BME280;39663;45.432;28.050;2022-11-20T00:28:24;101150.87;;;11.89;42.54
52291;BME280;39663;45.432;28.050;2022-11-20T00:28:57;101148.16;;;11.93;42.79
52291;BME280;39663;45.432;28.050;2022-11-20T00:29:29;101153.13;;;11.95;42.59
52291;BME280;39663;45.432;28.050;2022-11-20T00:30:00;101148.94;;;12.04;42.69
52291;BME280;39663;45.432;28.050;2022-11-20T00:30:32;101150.33;;;12.35;43.40
52291;BME280;39663;45.432;28.050;2022-11-20T00:31:05;101153.74;;;12.13;41.29
52291;BME280;39663;45.432;28.050;2022-11-20T00:31:37;101154.87;;;11.89;42.12
52291;BME280;39663;45.432;28.050;2022-11-20T00:32:08;101145.97;;;11.91;41.51
52291;BME280;39663;45.432;28.050;2022-11-20T00:32:40;101143.64;;;12.28;41.60
52291;BME280;39663;45.432;28.050;2022-11-20T00:33:11;101144.38;;;12.15;42.43
52291;BME280;39663;45.432;28.050;2022-11-20T00:33:44;101142.92;;;12.69;42.20
52291;BME280;39663;45.432;28.050;2022-11-20T00:34:15;101145.86;;;12.67;40.31
52291;BME280;39663;45.432;28.050;2022-11-20T00:34:47;101141.98;;;12.50;41.35
52291;BME280;39663;45.432;28.050;2022-11-20T00:35:18;101142.84;;;12.79;42.58
52291;BME280;39663;45.432;28.050;2022-11-20T00:35:50;101147.08;;;12.97;41.60
52291;BME280;39663;45.432;28.050;2022-11-20T00:36:23;101138.05;;;12.70;40.49
52291;BME280;39663;45.432;28.050;2022-11-20T00:36:55;101138.73;;;12.94;40.01
52291;BME280;39663;45.432;28.050;2022-11-20T00:37:26;101140.69;;;11.94;41.97
52291;BME280;39663;45.432;28.050;2022-11-20T00:37:58;101140.32;;;11.96;41.47
52291;BME280;39663;45.432;28.050;2022-11-20T00:38:29;101143.48;;;12.19;42.11
52291;BME280;39663;45.432;28.050;2022-11-20T00:39:01;101134.79;;;12.11;43.58
52291;BME280;39663;45.432;28.050;2022-11-20T00:39:33;101139.19;;;12.52;41.50
52291;BME280;39663;45.432;28.050;2022-11-20T00:40:06;101137.99;;;12.52;41.83
52291;BME280;39663;45.432;28.050;2022-11-20T00:40:38;101132.35;;;12.94;40.71
52291;BME280;39663;45.432;28.050;2022-11-20T00:41:12;101127.11;;;12.97;41.58
52291;BME280;39663;45.432;28.050;2022-11-20T00:41:44;101124.77;;;12.47;41.66
52291;BME280;39663;45.432;28.050;2022-11-20T00:42:15;101123.61;;;12.27;40.94
52291;BME280;39663;45.432;28.050;2022-11-20T00:42:47;101121.42;;;12.23;41.67
52291;BME280;39663;45.432;28.050;2022-11-20T00:43:19;101122.16;;;12.58;41.80
52291;BME280;39663;45.432;28.050;2022-11-20T00:43:52;101120.40;;;12.98;40.71
52291;BME280;39663;45.432;28.050;2022-11-20T00:44:24;101119.47;;;12.68;40.98
52291;BME280;39663;45.432;28.050;2022-11-20T00:44:55;101117.96;;;12.63;40.55
52291;BME280;39663;45.432;28.050;2022-11-20T00:45:27;101115.63;;;12.55;41.09
52291;BME280;39663;45.432;28.050;2022-11-20T00:45:59;101117.63;;;12.98;40.28
52291;BME280;39663;45.432;28.050;2022-11-20T00:46:31;101117.60;;;12.62;40.64
52291;BME280;39663;45.432;28.050;2022-11-20T00:47:02;101117.51;;;13.14;40.43
52291;BME280;39663;45.432;28.050;2022-11-20T00:47:34;101114.65;;;13.02;40.35
52291;BME280;39663;45.432;28.050;2022-11-20T00:48:06;101115.92;;;13.32;39.63
52291;BME280;39663;45.432;28.050;2022-11-20T00:48:38;101116.09;;;13.26;40.50
52291;BME280;39663;45.432;28.050;2022-11-20T00:49:09;101115.01;;;13.50;40.45
52291;BME280;39663;45.432;28.050;2022-11-20T00:49:40;101112.68;;;12.94;40.29
52291;BME280;39663;45.432;28.050;2022-11-20T00:50:12;101108.67;;;13.05;40.44
52291;BME280;39663;45.432;28.050;2022-11-20T00:50:43;101115.64;;;13.22;39.91
52291;BME280;39663;45.432;28.050;2022-11-20T00:51:17;101113.70;;;13.27;39.85
52291;BME280;39663;45.432;28.050;2022-11-20T00:51:49;101109.66;;;13.43;40.37
52291;BME280;39663;45.432;28.050;2022-11-20T00:52:20;101107.00;;;13.48;39.68
52291;BME280;39663;45.432;28.050;2022-11-20T00:52:52;101105.07;;;13.13;39.47
52291;BME280;39663;45.432;28.050;2022-11-20T00:53:24;101105.65;;;13.09;39.40
52291;BME280;39663;45.432;28.050;2022-11-20T00:53:57;101103.21;;;12.89;39.68
52291;BME280;39663;45.432;28.050;2022-11-20T00:54:28;101101.42;;;12.56;40.27
52291;BME280;39663;45.432;28.050;2022-11-20T00:55:00;101099.78;;;13.11;39.71
52291;BME280;39663;45.432;28.050;2022-11-20T00:55:31;101100.68;;;13.34;39.88
52291;BME280;39663;45.432;28.050;2022-11-20T00:56:05;101101.61;;;13.37;40.22
52291;BME280;39663;45.432;28.050;2022-11-20T00:56:37;101097.04;;;13.13;39.79
52291;BME280;39663;45.432;28.050;2022-11-20T00:57:09;101097.22;;;12.86;39.67
52291;BME280;39663;45.432;28.050;2022-11-20T00:57:40;101091.10;;;12.61;40.49
52291;BME280;39663;45.432;28.050;2022-11-20T00:58:12;101092.32;;;13.56;40.80
52291;BME280;39663;45.432;28.050;2022-11-20T00:58:44;101092.99;;;13.90;39.54
52291;BME280;39663;45.432;28.050;2022-11-20T01:06:12;101066.79;;;13.14;40.08
52291;BME280;39663;45.432;28.050;2022-11-20T01:06:45;101066.42;;;12.72;40.68
52291;BME280;39663;45.432;28.050;2022-11-20T01:07:16;101069.09;;;12.76;41.72
52291;BME280;39663;45.432;28.050;2022-11-20T01:07:48;101064.14;;;13.18;40.20
52291;BME280;39663;45.432;28.050;2022-11-20T01:08:19;101057.53;;;13.11;41.31
52291;BME280;39663;45.432;28.050;2022-11-20T01:08:53;101053.14;;;13.33;41.12
52291;BME280;39663;45.432;28.050;2022-11-20T01:09:25;101047.81;;;13.11;40.45
52291;BME280;39663;45.432;28.050;2022-11-20T01:09:57;101049.31;;;13.44;41.28
52291;BME280;39663;45.432;28.050;2022-11-20T01:10:29;101046.41;;;13.07;41.09
52291;BME280;39663;45.432;28.050;2022-11-20T01:11:02;101041.84;;;13.57;40.20
52291;BME280;39663;45.432;28.050;2022-11-20T01:11:37;101046.40;;;13.19;39.91
52291;BME280;39663;45.432;28.050;2022-11-20T01:12:08;101044.76;;;13.45;40.01
52291;BME280;39663;45.432;28.050;2022-11-20T01:12:40;101040.28;;;13.44;40.21
52291;BME280;39663;45.432;28.050;2022-11-20T01:13:11;101044.97;;;13.23;40.42
52291;BME280;39663;45.432;28.050;2022-11-20T01:13:43;101038.59;;;12.99;40.63
52291;BME280;39663;45.432;28.050;2022-11-20T01:14:18;101035.69;;;12.80;40.54
52291;BME280;39663;45.432;28.050;2022-11-20T01:14:50;101039.95;;;13.10;40.70
52291;BME280;39663;45.432;28.050;2022-11-20T01:15:21;101038.30;;;13.32;40.22
52291;BME280;39663;45.432;28.050;2022-11-20T01:15:52;101036.52;;;13.54;40.17
52291;BME280;39663;45.432;28.050;2022-11-20T01:16:26;101031.03;;;12.93;40.64
52291;BME280;39663;45.432;28.050;2022-11-20T01:16:57;101033.98;;;13.05;41.08
52291;BME280;39663;45.432;28.050;2022-11-20T01:17:34;101026.80;;;12.89;41.13
52291;BME280;39663;45.432;28.050;2022-11-20T01:18:10;101026.63;;;13.47;40.70
52291;BME280;39663;45.432;28.050;2022-11-20T01:18:45;101036.36;;;13.72;40.00
52291;BME280;39663;45.432;28.050;2022-11-20T01:19:19;101034.24;;;13.48;39.96
52291;BME280;39663;45.432;28.050;2022-11-20T01:19:50;101030.41;;;13.25;40.19
52291;BME280;39663;45.432;28.050;2022-11-20T01:20:22;101028.61;;;13.40;40.23
52291;BME280;39663;45.432;28.050;2022-11-20T01:20:53;101031.36;;;13.48;40.58
52291;BME280;39663;45.432;28.050;2022-11-20T01:21:27;101031.37;;;13.58;40.85
52291;BME280;39663;45.432;28.050;2022-11-20T01:21:58;101035.34;;;13.90;40.10
52291;BME280;39663;45.432;28.050;2022-11-20T01:22:30;101029.36;;;14.08;40.17
52291;BME280;39663;45.432;28.050;2022-11-20T01:23:02;101019.80;;;14.03;39.63
52291;BME280;39663;45.432;28.050;2022-11-20T01:23:35;101031.98;;;14.21;39.14
52291;BME280;39663;45.432;28.050;2022-11-20T01:24:11;101024.66;;;13.85;39.95
52291;BME280;39663;45.432;28.050;2022-11-20T01:24:53;101023.95;;;13.25;40.77
52291;BME280;39663;45.432;28.050;2022-11-20T01:25:30;101016.35;;;13.55;40.63
52291;BME280;39663;45.432;28.050;2022-11-20T01:26:03;101015.68;;;13.41;39.96
52291;BME280;39663;45.432;28.050;2022-11-20T01:26:37;101018.48;;;13.64;40.06
52291;BME280;39663;45.432;28.050;2022-11-20T01:27:09;101020.93;;;13.43;40.18
52291;BME280;39663;45.432;28.050;2022-11-20T01:27:46;101019.16;;;13.11;41.45
52291;BME280;39663;45.432;28.050;2022-11-20T01:28:17;101023.37;;;13.90;40.83
52291;BME280;39663;45.432;28.050;2022-11-20T01:28:49;101018.35;;;13.39;40.60
52291;BME280;39663;45.432;28.050;2022-11-20T01:29:23;101019.70;;;13.70;40.42
52291;BME280;39663;45.432;28.050;2022-11-20T01:29:55;101022.99;;;13.07;40.99
52291;BME280;39663;45.432;28.050;2022-11-20T01:30:26;101016.42;;;13.00;41.38
52291;BME280;39663;45.432;28.050;2022-11-20T01:31:12;101013.74;;;13.27;40.97
52291;BME280;39663;45.432;28.050;2022-11-20T01:31:45;101013.71;;;12.77;41.55
52291;BME280;39663;45.432;28.050;2022-11-20T01:32:17;101012.02;;;13.04;41.65
52291;BME280;39663;45.432;28.050;2022-11-20T01:32:49;101006.11;;;13.14;42.30
52291;BME280;39663;45.432;28.050;2022-11-20T01:33:21;101003.37;;;13.22;41.40
52291;BME280;39663;45.432;28.050;2022-11-20T01:33:54;101002.23;;;13.12;41.78
52291;BME280;39663;45.432;28.050;2022-11-20T01:34:25;100998.61;;;13.05;41.50
52291;BME280;39663;45.432;28.050;2022-11-20T01:35:02;101002.61;;;13.27;41.39
52291;BME280;39663;45.432;28.050;2022-11-20T01:35:33;101005.42;;;13.40;41.42
52291;BME280;39663;45.432;28.050;2022-11-20T01:36:07;101007.43;;;13.54;41.12
52291;BME280;39663;45.432;28.050;2022-11-20T01:36:40;101002.41;;;13.30;41.11
52291;BME280;39663;45.432;28.050;2022-11-20T01:37:11;101003.17;;;13.01;41.79
52291;BME280;39663;45.432;28.050;2022-11-20T01:37:43;101011.04;;;13.41;41.72
52291;BME280;39663;45.432;28.050;2022-11-20T01:38:16;101007.52;;;13.40;41.14
52291;BME280;39663;45.432;28.050;2022-11-20T01:38:51;101003.21;;;13.11;41.49
52291;BME280;39663;45.432;28.050;2022-11-20T01:39:25;100999.85;;;13.23;41.32
52291;BME280;39663;45.432;28.050;2022-11-20T01:40:03;100999.89;;;13.26;41.33
52291;BME280;39663;45.432;28.050;2022-11-20T01:40:40;100998.97;;;12.85;42.29
52291;BME280;39663;45.432;28.050;2022-11-20T01:41:13;100995.78;;;12.71;42.80
52291;BME280;39663;45.432;28.050;2022-11-20T01:41:46;101000.18;;;13.38;42.06
52291;BME280;39663;45.432;28.050;2022-11-20T01:42:18;101005.38;;;13.62;41.47
52291;BME280;39663;45.432;28.050;2022-11-20T01:43:01;101003.59;;;13.61;41.29
52291;BME280;39663;45.432;28.050;2022-11-20T01:43:40;101000.67;;;13.50;41.12
52291;BME280;39663;45.432;28.050;2022-11-20T01:44:13;100999.03;;;13.53;41.03
52291;BME280;39663;45.432;28.050;2022-11-20T01:44:51;100999.10;;;13.59;41.55
52291;BME280;39663;45.432;28.050;2022-11-20T01:46:04;101000.43;;;13.35;41.68
52291;BME280;39663;45.432;28.050;2022-11-20T01:46:37;101002.78;;;13.65;41.10
52291;BME280;39663;45.432;28.050;2022-11-20T01:47:09;100999.32;;;13.73;41.21
52291;BME280;39663;45.432;28.050;2022-11-20T01:47:48;101000.81;;;13.69;40.97
52291;BME280;39663;45.432;28.050;2022-11-20T01:48:23;100995.56;;;13.72;41.22
52291;BME280;39663;45.432;28.050;2022-11-20T01:48:59;100992.37;;;13.80;41.46
52291;BME280;39663;45.432;28.050;2022-11-20T01:49:36;100997.40;;;14.08;41.18
52291;BME280;39663;45.432;28.050;2022-11-20T01:50:13;100997.38;;;14.36;40.68
52291;BME280;39663;45.432;28.050;2022-11-20T01:50:46;100997.96;;;14.18;40.44
52291;BME280;39663;45.432;28.050;2022-11-20T01:51:23;100994.46;;;13.94;41.23
52291;BME280;39663;45.432;28.050;2022-11-20T01:51:58;100992.39;;;14.01;41.07
52291;BME280;39663;45.432;28.050;2022-11-20T01:52:36;100999.73;;;13.68;41.40
52291;BME280;39663;45.432;28.050;2022-11-20T01:53:13;101002.18;;;13.50;41.83
52291;BME280;39663;45.432;28.050;2022-11-20T01:53:46;101005.01;;;13.90;41.09
52291;BME280;39663;45.432;28.050;2022-11-20T01:54:29;101001.24;;;13.67;41.51
52291;BME280;39663;45.432;28.050;2022-11-20T01:55:06;100995.45;;;13.57;42.28
52291;BME280;39663;45.432;28.050;2022-11-20T01:55:43;100998.16;;;13.77;41.81
52291;BME280;39663;45.432;28.050;2022-11-20T01:56:16;100998.71;;;14.16;41.04
52291;BME280;39663;45.432;28.050;2022-11-20T01:56:50;100992.11;;;13.89;41.69
52291;BME280;39663;45.432;28.050;2022-11-20T01:57:25;100999.42;;;13.78;41.56
52291;BME280;39663;45.432;28.050;2022-11-20T01:57:59;100999.91;;;14.13;41.25
52291;BME280;39663;45.432;28.050;2022-11-20T01:58:35;100996.03;;;14.04;41.26
52291;BME280;39663;45.432;28.050;2022-11-20T01:59:15;100999.00;;;14.09;41.65
52291;BME280;39663;45.432;28.050;2022-11-20T01:59:50;100995.63;;;14.32;40.91
52291;BME280;39663;45.432;28.050;2022-11-20T02:00:25;100995.33;;;13.76;41.35
52291;BME280;39663;45.432;28.050;2022-11-20T02:00:56;100995.94;;;13.48;41.98
52291;BME280;39663;45.432;28.050;2022-11-20T02:01:42;100998.03;;;13.27;42.27
52291;BME280;39663;45.432;28.050;2022-11-20T02:02:13;100990.02;;;13.09;42.33
52291;BME280;39663;45.432;28.050;2022-11-20T02:02:49;100989.70;;;13.86;41.89
52291;BME280;39663;45.432;28.050;2022-11-20T02:03:23;100982.90;;;13.60;41.77
52291;BME280;39663;45.432;28.050;2022-11-20T02:03:55;100990.87;;;13.43;42.18
52291;BME280;39663;45.432;28.050;2022-11-20T02:04:28;100992.87;;;13.92;41.83
52291;BME280;39663;45.432;28.050;2022-11-20T02:05:06;100989.24;;;13.94;41.79
52291;BME280;39663;45.432;28.050;2022-11-20T02:05:43;100986.91;;;14.39;41.24
52291;BME280;39663;45.432;28.050;2022-11-20T02:06:22;100985.66;;;14.20;41.28
52291;BME280;39663;45.432;28.050;2022-11-20T02:06:59;100982.91;;;13.97;41.71
52291;BME280;39663;45.432;28.050;2022-11-20T02:07:31;100983.05;;;14.08;41.35
52291;BME280;39663;45.432;28.050;2022-11-20T02:08:05;100986.27;;;13.47;42.32
52291;BME280;39663;45.432;28.050;2022-11-20T02:08:43;100989.31;;;13.92;41.72
52291;BME280;39663;45.432;28.050;2022-11-20T02:09:15;100985.50;;;13.61;41.79
52291;BME280;39663;45.432;28.050;2022-11-20T02:09:47;100984.07;;;13.91;41.71
52291;BME280;39663;45.432;28.050;2022-11-20T02:10:19;100984.03;;;13.68;42.66
52291;BME280;39663;45.432;28.050;2022-11-20T02:10:51;100984.35;;;13.86;41.65
52291;BME280;39663;45.432;28.050;2022-11-20T02:11:22;100984.07;;;14.09;41.44
52291;BME280;39663;45.432;28.050;2022-11-20T02:11:54;100987.78;;;13.76;42.34
52291;BME280;39663;45.432;28.050;2022-11-20T02:12:26;100980.02;;;13.21;43.06
52291;BME280;39663;45.432;28.050;2022-11-20T02:12:58;100981.75;;;13.85;42.23
52291;BME280;39663;45.432;28.050;2022-11-20T02:13:30;100982.23;;;13.37;42.67
52291;BME280;39663;45.432;28.050;2022-11-20T02:14:01;100987.77;;;13.67;42.50
52291;BME280;39663;45.432;28.050;2022-11-20T02:14:32;100988.69;;;13.74;42.11
52291;BME280;39663;45.432;28.050;2022-11-20T02:15:05;100981.56;;;13.87;42.08
52291;BME280;39663;45.432;28.050;2022-11-20T02:15:37;100983.05;;;13.99;41.91
52291;BME280;39663;45.432;28.050;2022-11-20T02:16:12;100980.82;;;13.64;42.41
52291;BME280;39663;45.432;28.050;2022-11-20T02:16:45;100983.14;;;13.79;42.03
52291;BME280;39663;45.432;28.050;2022-11-20T02:17:17;100977.74;;;13.88;42.31
52291;BME280;39663;45.432;28.050;2022-11-20T02:17:49;100979.84;;;14.09;41.86
52291;BME280;39663;45.432;28.050;2022-11-20T02:18:21;100978.01;;;13.46;42.57
52291;BME280;39663;45.432;28.050;2022-11-20T02:18:55;100978.52;;;13.63;42.71
52291;BME280;39663;45.432;28.050;2022-11-20T02:19:30;100973.77;;;13.67;42.57
52291;BME280;39663;45.432;28.050;2022-11-20T02:20:02;100974.32;;;13.59;42.45
52291;BME280;39663;45.432;28.050;2022-11-20T02:20:34;100973.46;;;13.61;42.20
52291;BME280;39663;45.432;28.050;2022-11-20T02:21:09;100967.68;;;13.97;41.98
52291;BME280;39663;45.432;28.050;2022-11-20T02:21:51;100975.64;;;13.58;42.25
52291;BME280;39663;45.432;28.050;2022-11-20T02:22:31;100972.41;;;14.11;42.05
52291;BME280;39663;45.432;28.050;2022-11-20T02:23:10;100976.28;;;13.59;41.80
52291;BME280;39663;45.432;28.050;2022-11-20T02:24:00;100979.60;;;14.21;41.37
52291;BME280;39663;45.432;28.050;2022-11-20T02:24:34;100970.73;;;14.00;41.80
52291;BME280;39663;45.432;28.050;2022-11-20T02:25:07;100972.77;;;13.72;41.99
52291;BME280;39663;45.432;28.050;2022-11-20T02:25:40;100965.93;;;13.77;41.96
52291;BME280;39663;45.432;28.050;2022-11-20T02:26:18;100960.31;;;13.86;41.95
52291;BME280;39663;45.432;28.050;2022-11-20T02:26:54;100962.81;;;13.68;42.18
52291;BME280;39663;45.432;28.050;2022-11-20T02:27:27;100956.59;;;13.97;41.51
52291;BME280;39663;45.432;28.050;2022-11-20T02:27:59;100954.04;;;14.13;41.84
52291;BME280;39663;45.432;28.050;2022-11-20T02:28:31;100955.49;;;14.26;41.29
52291;BME280;39663;45.432;28.050;2022-11-20T02:29:03;100950.58;;;14.29;41.50
52291;BME280;39663;45.432;28.050;2022-11-20T02:29:39;100945.37;;;14.53;41.30
52291;BME280;39663;45.432;28.050;2022-11-20T02:30:13;100944.48;;;14.20;41.16
52291;BME280;39663;45.432;28.050;2022-11-20T02:30:44;100951.73;;;14.35;41.54
52291;BME280;39663;45.432;28.050;2022-11-20T02:31:16;100946.75;;;14.44;40.93
52291;BME280;39663;45.432;28.050;2022-11-20T02:31:47;100946.40;;;14.20;41.38
52291;BME280;39663;45.432;28.050;2022-11-20T02:32:19;100937.56;;;14.27;41.24
52291;BME280;39663;45.432;28.050;2022-11-20T02:32:51;100937.41;;;13.80;42.25
52291;BME280;39663;45.432;28.050;2022-11-20T02:33:23;100942.67;;;13.91;42.37
52291;BME280;39663;45.432;28.050;2022-11-20T02:33:56;100939.52;;;13.78;41.72
52291;BME280;39663;45.432;28.050;2022-11-20T02:34:27;100934.23;;;13.77;42.49
52291;BME280;39663;45.432;28.050;2022-11-20T02:35:07;100938.46;;;14.10;41.99
52291;BME280;39663;45.432;28.050;2022-11-20T02:35:42;100938.17;;;14.07;41.68
52291;BME280;39663;45.432;28.050;2022-11-20T02:36:15;100934.00;;;14.47;41.48
52291;BME280;39663;45.432;28.050;2022-11-20T02:36:48;100936.45;;;14.53;40.86
52291;BME280;39663;45.432;28.050;2022-11-20T02:37:27;100933.47;;;13.94;41.53
52291;BME280;39663;45.432;28.050;2022-11-20T02:38:03;100929.81;;;13.86;41.96
52291;BME280;39663;45.432;28.050;2022-11-20T02:38:34;100928.68;;;14.31;41.50
52291;BME280;39663;45.432;28.050;2022-11-20T02:39:16;100924.57;;;13.90;41.43
52291;BME280;39663;45.432;28.050;2022-11-20T02:39:50;100921.74;;;14.39;41.33
52291;BME280;39663;45.432;28.050;2022-11-20T02:40:22;100917.97;;;14.40;41.07
52291;BME280;39663;45.432;28.050;2022-11-20T02:40:54;100916.77;;;14.73;40.99
52291;BME280;39663;45.432;28.050;2022-11-20T02:41:31;100917.35;;;14.48;41.04
52291;BME280;39663;45.432;28.050;2022-11-20T02:42:03;100915.39;;;14.78;41.06
52291;BME280;39663;45.432;28.050;2022-11-20T02:42:35;100914.90;;;14.55;41.00
52291;BME280;39663;45.432;28.050;2022-11-20T02:43:15;100923.30;;;14.45;40.77
52291;BME280;39663;45.432;28.050;2022-11-20T02:43:46;100928.19;;;14.26;41.00
52291;BME280;39663;45.432;28.050;2022-11-20T02:44:23;100918.79;;;14.24;41.77
52291;BME280;39663;45.432;28.050;2022-11-20T02:44:54;100922.92;;;13.88;41.71
52291;BME280;39663;45.432;28.050;2022-11-20T02:45:26;100922.35;;;14.07;41.49
52291;BME280;39663;45.432;28.050;2022-11-20T02:45:57;100922.26;;;14.28;41.61
52291;BME280;39663;45.432;28.050;2022-11-20T02:46:35;100923.62;;;14.10;41.77
52291;BME280;39663;45.432;28.050;2022-11-20T02:47:06;100915.94;;;14.43;41.77
52291;BME280;39663;45.432;28.050;2022-11-20T02:47:38;100913.49;;;13.81;42.04
52291;BME280;39663;45.432;28.050;2022-11-20T02:48:10;100921.81;;;14.18;41.66
52291;BME280;39663;45.432;28.050;2022-11-20T02:48:42;100920.17;;;13.88;42.31
52291;BME280;39663;45.432;28.050;2022-11-20T02:49:13;100919.49;;;14.14;41.56
52291;BME280;39663;45.432;28.050;2022-11-20T02:49:45;100917.44;;;14.10;41.71
52291;BME280;39663;45.432;28.050;2022-11-20T02:50:17;100915.03;;;14.11;41.71
52291;BME280;39663;45.432;28.050;2022-11-20T02:50:48;100919.20;;;14.05;41.61
52291;BME280;39663;45.432;28.050;2022-11-20T02:51:20;100916.07;;;13.93;41.88
52291;BME280;39663;45.432;28.050;2022-11-20T02:51:51;100911.86;;;13.81;42.57
52291;BME280;39663;45.432;28.050;2022-11-20T02:52:23;100911.48;;;13.98;42.31
52291;BME280;39663;45.432;28.050;2022-11-20T02:53:00;100909.24;;;14.28;41.73
52291;BME280;39663;45.432;28.050;2022-11-20T02:53:31;100909.66;;;14.52;41.56
52291;BME280;39663;45.432;28.050;2022-11-20T02:54:03;100909.46;;;14.29;41.75
52291;BME280;39663;45.432;28.050;2022-11-20T02:54:34;100907.68;;;14.32;41.55
52291;BME280;39663;45.432;28.050;2022-11-20T02:55:07;100908.58;;;14.66;41.38
52291;BME280;39663;45.432;28.050;2022-11-20T02:55:38;100906.66;;;14.59;41.14
52291;BME280;39663;45.432;28.050;2022-11-20T02:56:10;100905.53;;;14.12;41.51
52291;BME280;39663;45.432;28.050;2022-11-20T02:56:42;100905.43;;;13.84;42.09
52291;BME280;39663;45.432;28.050;2022-11-20T02:57:13;100903.89;;;13.70;42.46
52291;BME280;39663;45.432;28.050;2022-11-20T02:57:45;100903.33;;;14.32;41.92
52291;BME280;39663;45.432;28.050;2022-11-20T02:58:16;100898.65;;;14.54;41.60
52291;BME280;39663;45.432;28.050;2022-11-20T02:58:48;100902.88;;;14.48;41.52